Time;durP1;ratioP1;P1;durP2;ratioP2;P2;SDS_P1;SDS_P2;PMS_P1;PMS_P2;Temp;Humidity;BMP_temperature;BMP_pressure;BME280_temperature;BME280_humidity;BME280_pressure;Samples;Min_cycle;Max_cycle;Signal;HPM_P1;HPM_P2
2022/07/02 00:02:01;;;;;;;9.15;2.53;;;16.10;99.90;;;;;;4985607;28;25109;-72
2022/07/02 00:04:32;;;;;;;8.63;2.60;;;16.10;99.90;;;;;;4978269;28;25062;-73
2022/07/02 00:06:58;;;;;;;8.18;2.72;;;16.10;99.90;;;;;;4978871;28;25058;-73
2022/07/02 00:09:27;;;;;;;9.13;2.70;;;16.10;99.90;;;;;;4975204;28;25070;-71
2022/07/02 00:11:57;;;;;;;7.68;3.53;;;16.10;99.90;;;;;;4975589;28;25078;-72
2022/07/02 00:14:24;;;;;;;10.98;3.65;;;16.10;99.90;;;;;;4979786;28;25101;-72
2022/07/02 00:16:52;;;;;;;11.48;2.92;;;16.00;99.90;;;;;;4999335;28;25067;-71
2022/07/02 00:19:19;;;;;;;9.48;2.85;;;15.90;99.90;;;;;;4968285;28;25159;-72
2022/07/02 00:21:45;;;;;;;8.52;2.75;;;15.90;99.90;;;;;;4978681;28;25134;-71
2022/07/02 00:24:11;;;;;;;7.65;3.17;;;15.90;99.90;;;;;;4982102;28;25127;-73
2022/07/02 00:26:43;;;;;;;13.43;2.92;;;15.90;99.90;;;;;;4978897;28;25135;-72
2022/07/02 00:29:12;;;;;;;9.70;2.97;;;15.90;99.90;;;;;;4974801;28;25068;-72
2022/07/02 00:31:38;;;;;;;6.43;2.92;;;15.80;99.90;;;;;;4968677;28;25117;-72
2022/07/02 00:34:05;;;;;;;8.43;3.00;;;15.80;99.90;;;;;;4994561;28;25060;-72
2022/07/02 00:36:32;;;;;;;10.52;2.47;;;15.80;99.90;;;;;;4970079;28;25086;-74
2022/07/02 00:38:58;;;;;;;10.52;2.65;;;15.70;99.90;;;;;;4976366;28;25129;-72
2022/07/02 00:41:26;;;;;;;6.95;2.40;;;15.60;99.90;;;;;;4966025;28;25066;-72
2022/07/02 00:43:52;;;;;;;11.98;2.72;;;15.60;99.90;;;;;;4978656;28;25141;-72
2022/07/02 00:46:21;;;;;;;5.68;1.85;;;15.50;99.90;;;;;;4975910;28;25144;-72
2022/07/02 00:48:47;;;;;;;6.15;2.30;;;15.50;99.90;;;;;;4963566;28;25088;-74
2022/07/02 00:51:12;;;;;;;6.35;1.65;;;15.50;99.90;;;;;;4969416;28;25081;-73
2022/07/02 00:53:38;;;;;;;4.55;1.70;;;15.40;99.90;;;;;;4979894;28;25056;-72
2022/07/02 00:56:04;;;;;;;3.80;1.42;;;15.40;99.90;;;;;;4980241;28;25160;-72
2022/07/02 00:58:32;;;;;;;4.35;1.75;;;15.40;99.90;;;;;;4979382;28;25069;-73
2022/07/02 01:00:59;;;;;;;5.15;1.45;;;15.40;99.90;;;;;;4974611;28;25179;-72
2022/07/02 01:03:26;;;;;;;2.75;1.13;;;15.40;99.90;;;;;;4976683;28;25083;-72
2022/07/02 01:05:52;;;;;;;5.95;1.80;;;15.40;99.90;;;;;;4979521;28;25093;-71
2022/07/02 01:11:06;;;;;;;3.45;1.30;;;15.50;99.90;;;;;;4965933;28;25059;-73
2022/07/02 01:13:33;;;;;;;7.40;1.60;;;15.40;99.90;;;;;;4971830;28;25085;-72
2022/07/02 01:15:59;;;;;;;7.78;1.70;;;15.40;99.90;;;;;;4978611;28;25048;-72
2022/07/02 01:18:25;;;;;;;13.50;3.47;;;15.40;99.90;;;;;;4977652;28;25123;-72
2022/07/02 01:20:51;;;;;;;4.60;1.48;;;15.40;99.90;;;;;;4971139;28;25089;-71
2022/07/02 01:23:16;;;;;;;8.73;1.83;;;15.40;99.90;;;;;;4974230;28;25069;-71
2022/07/02 01:25:52;;;;;;;7.13;2.03;;;15.40;99.90;;;;;;4972136;28;25107;-72
2022/07/02 01:28:19;;;;;;;5.68;1.35;;;15.40;99.90;;;;;;4972140;28;25147;-72
2022/07/02 01:30:46;;;;;;;4.53;2.30;;;15.40;99.90;;;;;;4971483;28;25099;-72
2022/07/02 01:33:11;;;;;;;8.07;1.63;;;15.40;99.90;;;;;;4981519;28;25153;-71
2022/07/02 01:35:37;;;;;;;4.68;1.50;;;15.30;99.90;;;;;;4975427;28;25143;-72
2022/07/02 01:38:03;;;;;;;3.88;1.63;;;15.20;99.90;;;;;;4973901;28;25074;-71
2022/07/02 01:40:28;;;;;;;6.75;1.80;;;15.10;99.90;;;;;;4966720;28;25095;-72
2022/07/02 01:42:54;;;;;;;6.70;2.20;;;15.20;99.90;;;;;;4972707;28;25102;-72
2022/07/02 01:45:20;;;;;;;7.05;1.77;;;15.10;99.90;;;;;;4981596;28;25102;-71
2022/07/02 01:47:46;;;;;;;11.60;2.05;;;15.10;99.90;;;;;;4969835;28;25086;-72
2022/07/02 01:50:12;;;;;;;4.80;1.60;;;15.10;99.90;;;;;;4972406;28;25077;-72
2022/07/02 01:52:38;;;;;;;7.90;1.52;;;15.10;99.90;;;;;;4975901;28;25095;-72
2022/07/02 01:55:04;;;;;;;4.30;1.90;;;15.10;99.90;;;;;;4975481;28;25056;-71
2022/07/02 01:57:33;;;;;;;3.28;2.20;;;15.10;99.90;;;;;;4980952;28;25071;-72
2022/07/02 01:59:59;;;;;;;5.03;1.45;;;15.00;99.90;;;;;;4991155;28;25051;-71
2022/07/02 02:02:25;;;;;;;5.38;1.70;;;15.00;99.90;;;;;;4985901;28;25092;-70
2022/07/02 02:04:50;;;;;;;5.15;1.73;;;15.10;99.90;;;;;;4983883;28;25073;-71
2022/07/02 02:07:16;;;;;;;4.80;1.50;;;15.00;99.90;;;;;;4995399;28;25049;-72
2022/07/02 02:09:42;;;;;;;3.95;1.75;;;15.10;99.90;;;;;;4990153;28;25058;-70
2022/07/02 02:12:08;;;;;;;6.85;1.85;;;15.10;99.90;;;;;;4970128;28;25103;-72
2022/07/02 02:14:34;;;;;;;7.38;1.95;;;15.10;99.90;;;;;;4975365;28;25069;-71
2022/07/02 02:16:59;;;;;;;6.20;1.55;;;15.10;99.90;;;;;;4978009;28;25054;-71
2022/07/02 02:19:25;;;;;;;4.07;1.80;;;15.10;99.90;;;;;;4976561;28;25145;-71
2022/07/02 02:21:51;;;;;;;6.22;1.50;;;15.10;99.90;;;;;;4971281;28;25076;-70
2022/07/02 02:24:16;;;;;;;5.57;1.80;;;15.10;99.90;;;;;;4970800;28;25126;-71
2022/07/02 02:26:42;;;;;;;6.53;1.83;;;15.10;99.90;;;;;;4974883;28;25080;-71
2022/07/02 02:29:08;;;;;;;6.43;1.98;;;15.10;99.90;;;;;;4962728;28;25076;-70
2022/07/02 02:31:33;;;;;;;7.75;2.17;;;15.00;99.90;;;;;;4965389;28;25084;-70
2022/07/02 02:33:59;;;;;;;5.38;1.50;;;15.00;99.90;;;;;;4969632;28;25150;-71
2022/07/02 02:36:25;;;;;;;5.93;1.50;;;15.00;99.90;;;;;;4989742;28;25132;-71
2022/07/02 02:38:50;;;;;;;3.72;1.30;;;15.00;99.90;;;;;;4972049;28;25122;-71
2022/07/02 02:41:16;;;;;;;5.97;1.90;;;15.00;99.90;;;;;;4975654;28;25055;-70
2022/07/02 02:43:42;;;;;;;3.10;1.52;;;15.00;99.90;;;;;;4974386;28;25104;-71
2022/07/02 02:46:08;;;;;;;8.70;2.00;;;15.10;99.90;;;;;;4971916;28;25079;-70
2022/07/02 02:48:35;;;;;;;6.85;2.00;;;15.10;99.90;;;;;;4966127;28;25143;-72
2022/07/02 02:51:01;;;;;;;5.35;1.70;;;15.10;99.90;;;;;;4951730;28;25075;-70
2022/07/02 02:53:27;;;;;;;5.28;1.65;;;15.00;99.90;;;;;;4962364;28;25110;-70
2022/07/02 02:55:53;;;;;;;2.90;1.60;;;15.10;99.90;;;;;;4970305;28;25072;-70
2022/07/02 02:58:19;;;;;;;6.38;1.70;;;15.00;99.90;;;;;;4970269;28;25132;-69
2022/07/02 03:00:45;;;;;;;6.80;1.73;;;15.00;99.90;;;;;;4974090;28;25081;-71
2022/07/02 03:03:11;;;;;;;1.75;1.45;;;15.00;99.90;;;;;;4971953;28;25165;-70
2022/07/02 03:05:36;;;;;;;5.88;1.60;;;14.90;99.90;;;;;;4967106;28;25062;-71
2022/07/02 03:08:02;;;;;;;4.53;1.50;;;14.90;99.90;;;;;;4974999;28;25146;-71
2022/07/02 03:10:28;;;;;;;2.95;1.70;;;14.90;99.90;;;;;;4970617;28;25064;-70
2022/07/02 03:12:53;;;;;;;8.73;1.80;;;14.80;99.90;;;;;;4978077;28;25094;-70
2022/07/02 03:15:19;;;;;;;6.22;1.33;;;14.80;99.90;;;;;;4971055;28;25126;-70
2022/07/02 03:17:44;;;;;;;3.47;1.60;;;14.80;99.90;;;;;;4976726;28;25080;-70
2022/07/02 03:20:10;;;;;;;6.43;1.77;;;14.80;99.90;;;;;;4978655;28;25067;-71
2022/07/02 03:22:36;;;;;;;3.08;1.70;;;14.70;99.90;;;;;;4994591;28;25061;-71
2022/07/02 03:25:02;;;;;;;4.82;1.63;;;14.80;99.90;;;;;;5001891;28;25101;-70
2022/07/02 03:27:30;;;;;;;4.40;1.40;;;14.70;99.90;;;;;;4984304;28;25058;-72
2022/07/02 03:29:56;;;;;;;3.00;1.45;;;14.70;99.90;;;;;;4978058;28;25079;-71
2022/07/02 03:32:25;;;;;;;7.68;2.25;;;14.70;99.90;;;;;;4968312;28;25084;-71
2022/07/02 03:34:52;;;;;;;6.88;1.98;;;14.70;99.90;;;;;;4980922;28;25146;-70
2022/07/02 03:37:17;;;;;;;5.15;1.70;;;14.60;99.90;;;;;;4980803;28;25072;-72
2022/07/02 03:39:43;;;;;;;5.78;2.00;;;14.60;99.90;;;;;;4982207;28;25073;-70
2022/07/02 03:42:09;;;;;;;8.98;2.05;;;14.60;99.90;;;;;;4976889;28;25139;-70
2022/07/02 03:44:35;;;;;;;8.57;1.95;;;14.60;99.90;;;;;;4976252;28;25107;-70
2022/07/02 03:47:00;;;;;;;3.95;1.58;;;14.70;99.90;;;;;;4957706;28;25108;-71
2022/07/02 03:49:26;;;;;;;5.85;2.00;;;14.70;99.90;;;;;;4976178;28;25075;-71
2022/07/02 03:51:52;;;;;;;5.60;2.20;;;14.70;99.90;;;;;;4974001;28;25105;-70
2022/07/02 03:54:18;;;;;;;6.97;1.85;;;14.60;99.90;;;;;;4973653;28;25150;-70
2022/07/02 03:56:43;;;;;;;4.93;1.77;;;14.60;99.90;;;;;;4971580;28;25130;-70
2022/07/02 03:59:09;;;;;;;5.38;2.13;;;14.70;99.90;;;;;;4971240;28;25089;-70
2022/07/02 04:01:34;;;;;;;5.35;1.77;;;14.60;99.90;;;;;;4965550;28;25070;-70
2022/07/02 04:04:00;;;;;;;5.47;1.80;;;14.60;99.90;;;;;;4965680;28;25054;-72
2022/07/02 04:06:26;;;;;;;2.90;1.63;;;14.70;99.90;;;;;;4964987;28;25098;-70
2022/07/02 04:08:51;;;;;;;5.13;1.52;;;14.70;99.90;;;;;;4969739;28;25116;-70
2022/07/02 04:11:17;;;;;;;5.93;2.00;;;14.70;99.90;;;;;;4969617;28;25141;-70
2022/07/02 04:13:42;;;;;;;6.32;1.70;;;14.70;99.90;;;;;;4972206;28;25078;-69
2022/07/02 04:16:08;;;;;;;9.45;2.28;;;14.70;99.90;;;;;;4968255;28;25080;-70
2022/07/02 04:18:34;;;;;;;4.15;1.77;;;14.70;99.90;;;;;;4974142;28;25102;-69
2022/07/02 04:20:59;;;;;;;4.22;1.98;;;14.70;99.90;;;;;;4974311;28;25053;-69
2022/07/02 04:23:25;;;;;;;4.05;1.88;;;14.80;99.90;;;;;;4974444;28;25071;-70
2022/07/02 04:25:50;;;;;;;4.13;2.15;;;14.80;99.90;;;;;;4969064;28;25097;-70
2022/07/02 04:28:16;;;;;;;10.27;1.90;;;14.80;99.90;;;;;;4966264;28;25153;-70
2022/07/02 04:30:41;;;;;;;5.13;2.10;;;14.90;99.90;;;;;;4970442;28;25078;-71
2022/07/02 04:33:07;;;;;;;3.13;1.70;;;14.80;99.90;;;;;;4966783;28;25124;-71
2022/07/02 04:35:32;;;;;;;5.70;2.10;;;14.80;99.90;;;;;;4970199;28;25056;-71
2022/07/02 04:37:58;;;;;;;8.18;2.20;;;14.90;99.90;;;;;;4964852;28;25140;-69
2022/07/02 04:40:24;;;;;;;6.28;2.10;;;14.80;99.90;;;;;;4971404;28;25087;-71
2022/07/02 04:42:49;;;;;;;4.70;1.92;;;14.80;99.90;;;;;;4972609;28;25180;-70
2022/07/02 04:45:15;;;;;;;3.30;1.75;;;14.90;99.90;;;;;;4975705;28;25087;-72
2022/07/02 04:47:40;;;;;;;5.18;1.73;;;15.00;99.90;;;;;;4976106;28;25137;-70
2022/07/02 04:50:07;;;;;;;4.82;1.90;;;15.10;99.90;;;;;;4960123;28;24971;-70
2022/07/02 04:52:32;;;;;;;6.13;1.88;;;15.00;99.90;;;;;;4967064;28;25082;-70
2022/07/02 04:54:58;;;;;;;3.45;1.63;;;15.00;99.90;;;;;;4966370;28;25185;-69
2022/07/02 04:57:23;;;;;;;4.57;2.15;;;15.10;99.90;;;;;;4978452;28;25062;-71
2022/07/02 04:59:49;;;;;;;2.55;1.95;;;15.20;99.90;;;;;;4972611;28;25074;-70
2022/07/02 05:02:14;;;;;;;8.60;2.28;;;15.20;99.90;;;;;;4971059;28;25138;-70
2022/07/02 05:04:40;;;;;;;4.03;1.80;;;15.20;99.90;;;;;;4972813;28;25144;-73
2022/07/02 05:07:06;;;;;;;6.63;2.00;;;15.20;99.90;;;;;;4970349;28;25054;-70
2022/07/02 05:09:32;;;;;;;10.65;2.65;;;15.30;99.90;;;;;;4968348;28;25122;-70
2022/07/02 05:11:57;;;;;;;9.27;2.72;;;15.30;99.90;;;;;;4965811;28;25138;-70
2022/07/02 05:14:23;;;;;;;5.03;1.98;;;15.20;99.90;;;;;;4959356;28;25118;-70
2022/07/02 05:16:48;;;;;;;6.82;2.15;;;15.30;99.90;;;;;;4961829;28;25093;-70
2022/07/02 05:19:14;;;;;;;6.15;2.50;;;15.50;99.90;;;;;;4974258;28;25070;-70
2022/07/02 05:21:42;;;;;;;5.45;2.33;;;15.50;99.90;;;;;;4972527;28;25114;-70
2022/07/02 05:24:07;;;;;;;9.48;2.10;;;15.60;99.90;;;;;;4980325;28;25055;-70
2022/07/02 05:26:33;;;;;;;5.93;1.77;;;15.60;99.90;;;;;;4969735;28;25157;-72
2022/07/02 05:28:59;;;;;;;6.53;2.20;;;15.50;99.90;;;;;;4964348;28;25088;-71
2022/07/02 05:31:24;;;;;;;4.00;2.15;;;15.60;99.90;;;;;;4964852;28;25136;-69
2022/07/02 05:33:50;;;;;;;5.13;2.65;;;15.70;99.90;;;;;;4966910;28;25121;-70
2022/07/02 05:36:16;;;;;;;3.17;2.00;;;15.80;99.90;;;;;;4964901;28;25087;-72
2022/07/02 05:38:41;;;;;;;5.22;1.90;;;16.00;99.90;;;;;;4972325;28;25060;-71
2022/07/02 05:41:07;;;;;;;4.88;1.77;;;16.00;99.90;;;;;;4968462;28;25170;-71
2022/07/02 05:43:33;;;;;;;2.95;1.83;;;16.10;99.90;;;;;;4968827;28;25071;-71
2022/07/02 05:45:58;;;;;;;4.18;1.85;;;16.20;99.90;;;;;;4968433;28;25110;-71
2022/07/02 05:48:24;;;;;;;6.22;2.08;;;16.10;99.90;;;;;;4972083;28;25051;-70
2022/07/02 05:50:50;;;;;;;12.00;2.17;;;16.20;99.90;;;;;;4995779;28;25069;-71
2022/07/02 05:53:15;;;;;;;8.43;2.63;;;16.30;99.90;;;;;;4970942;28;25098;-71
2022/07/02 05:55:41;;;;;;;6.60;1.73;;;16.40;99.90;;;;;;4974398;28;25112;-70
2022/07/02 05:58:07;;;;;;;14.02;2.42;;;16.50;99.90;;;;;;4970078;28;25098;-72
2022/07/02 06:00:33;;;;;;;4.32;2.00;;;16.60;99.90;;;;;;4969057;28;25077;-72
2022/07/02 06:02:58;;;;;;;7.43;2.00;;;16.70;99.90;;;;;;4962377;28;25087;-71
2022/07/02 06:08:08;;;;;;;8.40;2.38;;;16.70;99.90;;;;;;4962742;28;25154;-71
2022/07/02 06:10:34;;;;;;;2.67;1.33;;;17.00;99.90;;;;;;4970531;28;25069;-71
2022/07/02 06:13:00;;;;;;;6.90;1.80;;;17.30;99.90;;;;;;4965453;28;25066;-71
2022/07/02 06:15:25;;;;;;;4.70;1.65;;;17.50;99.90;;;;;;4968939;28;25104;-71
2022/07/02 06:17:51;;;;;;;3.90;1.65;;;17.60;99.90;;;;;;4976091;28;25090;-71
2022/07/02 06:20:16;;;;;;;5.53;1.45;;;17.90;99.90;;;;;;4971139;28;25072;-71
2022/07/02 06:22:42;;;;;;;3.58;2.28;;;18.10;99.90;;;;;;4971742;28;25135;-71
2022/07/02 06:25:08;;;;;;;6.22;1.60;;;18.30;99.90;;;;;;4964211;28;25081;-71
2022/07/02 06:27:34;;;;;;;5.82;2.13;;;18.40;99.90;;;;;;4968463;28;25102;-71
2022/07/02 06:30:02;;;;;;;6.32;2.08;;;18.60;99.90;;;;;;4968898;28;25080;-71
2022/07/02 06:32:28;;;;;;;3.15;1.25;;;18.80;99.90;;;;;;4964991;28;25120;-72
2022/07/02 06:34:54;;;;;;;7.72;2.63;;;19.20;99.90;;;;;;4968607;28;25075;-70
2022/07/02 06:37:19;;;;;;;6.68;1.80;;;19.30;99.90;;;;;;4963368;28;25131;-72
2022/07/02 06:39:45;;;;;;;5.80;1.60;;;19.30;99.90;;;;;;4969168;28;25072;-72
2022/07/02 06:42:19;;;;;;;4.90;1.40;;;19.00;99.90;;;;;;4974734;28;25082;-72
2022/07/02 06:44:46;;;;;;;2.90;1.42;;;19.30;99.90;;;;;;4984416;28;25057;-71
2022/07/02 06:47:13;;;;;;;4.00;1.83;;;19.50;99.90;;;;;;4983162;28;25056;-72
2022/07/02 06:49:39;;;;;;;5.75;1.63;;;19.30;99.90;;;;;;4987461;28;25115;-74
2022/07/02 06:52:05;;;;;;;6.45;1.55;;;19.70;99.90;;;;;;4967050;28;25106;-72
2022/07/02 06:54:31;;;;;;;3.53;1.30;;;19.70;99.90;;;;;;4972095;28;25056;-72
2022/07/02 06:56:56;;;;;;;4.85;1.48;;;19.80;99.90;;;;;;4975864;28;25099;-71
2022/07/02 06:59:22;;;;;;;3.47;1.63;;;19.90;99.90;;;;;;4973941;28;25087;-72
2022/07/02 07:01:48;;;;;;;3.80;1.63;;;19.70;99.90;;;;;;4968065;28;25165;-73
2022/07/02 07:04:14;;;;;;;6.60;1.40;;;19.80;99.90;;;;;;4976512;28;25063;-72
2022/07/02 07:07:03;;;;;;;6.15;1.38;;;19.80;99.90;;;;;;4982770;28;25083;-71
2022/07/02 07:09:27;;;;;;;3.88;1.30;;;19.60;99.90;;;;;;4978492;28;25080;-73
2022/07/02 07:11:53;;;;;;;4.90;1.20;;;20.00;99.90;;;;;;4982167;28;25075;-73
2022/07/02 07:14:19;;;;;;;4.57;1.38;;;20.50;99.90;;;;;;4986052;28;25060;-72
2022/07/02 07:16:45;;;;;;;1.98;1.00;;;20.70;99.90;;;;;;4978681;28;25072;-72
2022/07/02 07:19:11;;;;;;;4.15;1.10;;;20.80;99.90;;;;;;4970996;28;25095;-73
2022/07/02 07:21:39;;;;;;;5.30;1.20;;;21.00;99.90;;;;;;4971224;28;25094;-73
2022/07/02 07:24:05;;;;;;;5.53;1.17;;;21.20;99.90;;;;;;4972107;28;25057;-73
2022/07/02 07:26:31;;;;;;;7.00;1.58;;;21.50;99.90;;;;;;4969628;28;25068;-73
2022/07/02 07:28:57;;;;;;;4.60;0.80;;;20.90;99.90;;;;;;4967266;28;25144;-71
2022/07/02 07:31:23;;;;;;;3.03;1.00;;;20.90;99.90;;;;;;4967387;28;25148;-73
2022/07/02 07:33:50;;;;;;;4.43;1.15;;;21.30;99.90;;;;;;4964828;28;25055;-73
2022/07/02 07:36:16;;;;;;;2.28;1.02;;;21.60;99.90;;;;;;4972915;28;25062;-73
2022/07/02 07:38:42;;;;;;;5.45;1.23;;;21.40;99.20;;;;;;4970043;28;25063;-72
2022/07/02 07:41:07;;;;;;;4.82;1.17;;;21.10;98.50;;;;;;4964223;28;25066;-71
2022/07/02 07:43:33;;;;;;;1.58;0.90;;;20.70;98.50;;;;;;4965826;28;25066;-72
2022/07/02 07:45:59;;;;;;;3.15;0.73;;;21.20;99.90;;;;;;4963037;28;25072;-72
2022/07/02 07:48:25;;;;;;;2.90;0.75;;;21.30;99.20;;;;;;4988050;28;25146;-72
2022/07/02 07:50:51;;;;;;;2.33;1.00;;;21.20;99.90;;;;;;4965306;28;25095;-71
2022/07/02 07:53:16;;;;;;;2.72;1.00;;;21.60;99.90;;;;;;4968074;28;25100;-72
2022/07/02 07:55:42;;;;;;;1.52;0.80;;;22.10;99.90;;;;;;4974527;28;25067;-72
2022/07/02 07:58:08;;;;;;;3.22;0.90;;;21.80;95.20;;;;;;4971258;28;25054;-72
2022/07/02 08:00:34;;;;;;;4.90;1.10;;;22.00;95.40;;;;;;4970500;28;25131;-72
2022/07/02 08:03:00;;;;;;;2.83;0.80;;;21.80;90.40;;;;;;4973963;28;24876;-72
2022/07/02 08:05:25;;;;;;;3.72;0.70;;;21.70;93.30;;;;;;4982722;28;25050;-72
2022/07/02 08:07:51;;;;;;;4.57;0.82;;;22.20;94.90;;;;;;4979455;28;25138;-72
2022/07/02 08:10:17;;;;;;;2.17;1.10;;;22.60;94.20;;;;;;4992980;28;25135;-72
2022/07/02 08:12:43;;;;;;;2.47;0.68;;;22.70;92.50;;;;;;4990603;28;25063;-72
2022/07/02 08:15:10;;;;;;;2.00;0.98;;;23.10;92.10;;;;;;4972278;28;25060;-72
2022/07/02 08:17:36;;;;;;;1.70;0.73;;;23.40;91.10;;;;;;4986362;28;25056;-72
2022/07/02 08:20:04;;;;;;;7.32;1.17;;;23.60;90.90;;;;;;4999663;28;25123;-72
2022/07/02 08:22:33;;;;;;;3.40;0.77;;;23.40;83.10;;;;;;4981612;28;25049;-73
2022/07/02 08:24:59;;;;;;;2.40;0.70;;;22.80;70.20;;;;;;4979456;28;25062;-71
2022/07/02 08:27:25;;;;;;;2.35;0.60;;;22.40;74.90;;;;;;4974658;28;25122;-73
2022/07/02 08:29:52;;;;;;;3.63;0.60;;;22.50;72.80;;;;;;4972925;28;25094;-73
2022/07/02 08:32:18;;;;;;;1.05;0.63;;;22.60;67.70;;;;;;4973544;28;25076;-71
2022/07/02 08:34:44;;;;;;;2.03;0.88;;;22.60;68.60;;;;;;4970383;28;25126;-73
2022/07/02 08:37:09;;;;;;;2.70;0.63;;;22.80;63.50;;;;;;4974047;28;25108;-73
2022/07/02 08:39:35;;;;;;;1.50;0.60;;;22.60;66.10;;;;;;4971615;28;25081;-72
2022/07/02 08:42:02;;;;;;;3.50;0.57;;;22.90;71.90;;;;;;4979567;28;25120;-73
2022/07/02 08:44:31;;;;;;;1.17;0.73;;;23.10;72.30;;;;;;4969133;28;25053;-72
2022/07/02 08:46:58;;;;;;;1.98;0.85;;;23.50;76.40;;;;;;4984734;28;25092;-72
2022/07/02 08:49:26;;;;;;;2.28;1.00;;;23.80;73.30;;;;;;4976075;28;25134;-73
2022/07/02 08:52:09;;;;;;;4.47;1.30;;;24.00;69.40;;;;;;4984414;28;25065;-72
2022/07/02 08:54:35;;;;;;;2.58;1.10;;;24.30;66.70;;;;;;4980303;28;25095;-71
2022/07/02 08:57:03;;;;;;;2.47;0.82;;;24.20;57.40;;;;;;4983218;28;25095;-74
2022/07/02 08:59:32;;;;;;;2.08;1.25;;;24.40;62.10;;;;;;4980066;28;25056;-72
2022/07/02 09:02:00;;;;;;;3.45;1.17;;;23.90;47.10;;;;;;4978845;28;25065;-73
2022/07/02 09:04:26;;;;;;;2.72;1.08;;;23.70;59.40;;;;;;4982183;28;25096;-75
2022/07/02 09:06:57;;;;;;;2.97;1.10;;;23.70;58.20;;;;;;4977114;28;25082;-74
2022/07/02 09:09:27;;;;;;;3.53;1.10;;;24.10;59.70;;;;;;4978717;28;25055;-71
2022/07/02 09:11:53;;;;;;;4.07;1.27;;;24.30;51.60;;;;;;4988749;28;25101;-73
2022/07/02 09:14:19;;;;;;;3.78;1.00;;;24.30;41.10;;;;;;4982506;28;25066;-72
2022/07/02 09:16:47;;;;;;;1.85;0.90;;;24.20;40.40;;;;;;4983881;28;25047;-73
2022/07/02 09:19:13;;;;;;;2.30;0.80;;;24.10;52.00;;;;;;4981384;28;25094;-72
2022/07/02 09:21:46;;;;;;;3.72;1.38;;;24.10;52.20;;;;;;4985588;28;25065;-73
2022/07/02 09:24:15;;;;;;;5.93;1.08;;;24.10;57.40;;;;;;4989266;28;25073;-75
2022/07/02 09:26:41;;;;;;;2.53;0.88;;;24.00;47.40;;;;;;4976661;28;25080;-73
2022/07/02 09:29:07;;;;;;;3.35;1.30;;;23.70;46.60;;;;;;4971798;28;25099;-73
2022/07/02 09:31:46;;;;;;;4.22;0.98;;;23.90;54.90;;;;;;4972442;28;25085;-73
2022/07/02 09:34:23;;;;;;;2.58;1.10;;;24.00;53.40;;;;;;4966744;28;25165;-73
2022/07/02 09:36:49;;;;;;;2.55;1.20;;;24.30;53.00;;;;;;4969917;28;25081;-73
2022/07/02 09:39:14;;;;;;;9.52;2.00;;;24.30;56.10;;;;;;4966250;28;25055;-73
2022/07/02 09:41:43;;;;;;;2.50;1.10;;;24.80;61.40;;;;;;4977539;28;25072;-72
2022/07/02 09:44:11;;;;;;;4.43;1.25;;;24.60;32.20;;;;;;4969165;28;25072;-73
2022/07/02 09:46:43;;;;;;;5.00;1.15;;;24.00;40.10;;;;;;4972137;28;25060;-73
2022/07/02 09:49:09;;;;;;;6.10;1.25;;;23.90;44.80;;;;;;4975830;28;25106;-71
2022/07/02 09:51:48;;;;;;;5.10;0.90;;;24.30;46.10;;;;;;4973113;28;25088;-73
2022/07/02 09:54:24;;;;;;;4.07;1.35;;;24.80;42.10;;;;;;4970012;28;25091;-73
2022/07/02 09:56:59;;;;;;;5.75;0.85;;;24.10;35.60;;;;;;4966112;28;25064;-74
2022/07/02 09:59:25;;;;;;;15.18;1.35;;;24.50;43.80;;;;;;4965776;28;25054;-72
2022/07/02 10:01:51;;;;;;;4.25;0.93;;;24.80;43.10;;;;;;4974614;28;25071;-72
2022/07/02 10:04:30;;;;;;;7.03;1.30;;;25.10;37.20;;;;;;4971353;28;25071;-72
2022/07/02 10:06:57;;;;;;;4.75;1.10;;;24.80;34.90;;;;;;4972006;28;25165;-72
2022/07/02 10:09:25;;;;;;;3.95;0.98;;;24.60;37.60;;;;;;4978740;28;25069;-72
2022/07/02 10:11:51;;;;;;;2.83;1.20;;;24.50;44.40;;;;;;4973250;28;25062;-72
2022/07/02 10:14:20;;;;;;;4.68;1.40;;;25.00;56.20;;;;;;4979851;28;25084;-73
2022/07/02 10:16:47;;;;;;;4.60;1.05;;;25.50;44.50;;;;;;4978556;28;25090;-72
2022/07/02 10:19:15;;;;;;;4.35;1.00;;;25.70;39.20;;;;;;4970436;28;25174;-72
2022/07/02 10:21:41;;;;;;;3.75;1.10;;;25.80;42.20;;;;;;4963458;28;25071;-71
2022/07/02 10:24:09;;;;;;;6.57;1.52;;;25.90;32.70;;;;;;4980287;28;25094;-73
2022/07/02 10:26:34;;;;;;;2.47;0.98;;;26.00;38.20;;;;;;4968017;28;25106;-72
2022/07/02 10:29:03;;;;;;;3.78;1.20;;;25.60;32.40;;;;;;4974267;28;25066;-72
2022/07/02 10:31:40;;;;;;;2.10;0.93;;;26.00;39.40;;;;;;4972853;28;25081;-73
2022/07/02 10:34:14;;;;;;;2.97;1.08;;;25.60;29.80;;;;;;4965289;28;25086;-72
2022/07/02 10:36:40;;;;;;;5.00;1.52;;;25.30;42.90;;;;;;4967064;28;25062;-71
2022/07/02 10:39:06;;;;;;;2.22;1.10;;;24.80;41.80;;;;;;4972039;28;25075;-73
2022/07/02 10:41:32;;;;;;;4.40;1.35;;;24.50;40.30;;;;;;4972896;28;25060;-72
2022/07/02 10:43:59;;;;;;;4.90;1.42;;;24.30;51.30;;;;;;4982715;28;25074;-74
2022/07/02 10:46:27;;;;;;;4.30;1.10;;;24.10;60.30;;;;;;4980431;28;25066;-72
2022/07/02 10:48:57;;;;;;;3.45;1.02;;;24.20;64.40;;;;;;4976387;28;25056;-71
2022/07/02 10:51:38;;;;;;;3.58;1.65;;;24.00;56.50;;;;;;4984130;28;25077;-73
2022/07/02 10:54:07;;;;;;;4.10;1.13;;;23.70;49.70;;;;;;4971866;28;25082;-72
2022/07/02 10:56:49;;;;;;;4.05;1.67;;;23.40;49.30;;;;;;4970740;28;25098;-71
2022/07/02 10:59:27;;;;;;;2.90;1.00;;;23.40;60.30;;;;;;4966834;28;25085;-73
2022/07/02 11:02:00;;;;;;;3.03;0.95;;;23.70;61.10;;;;;;4976743;28;25065;-73
2022/07/02 11:04:26;;;;;;;2.17;0.93;;;23.90;62.00;;;;;;4974348;28;25170;-72
2022/07/02 11:07:04;;;;;;;5.93;1.20;;;24.70;56.20;;;;;;4972540;28;25105;-72
2022/07/02 11:09:29;;;;;;;5.32;0.75;;;25.00;50.30;;;;;;4967685;28;25048;-73
2022/07/02 11:12:02;;;;;;;2.75;1.05;;;24.80;41.90;;;;;;4978036;28;25108;-75
2022/07/02 11:14:31;;;;;;;2.40;0.82;;;24.70;43.00;;;;;;4971206;28;25058;-73
2022/07/02 11:16:57;;;;;;;4.38;1.10;;;24.60;55.30;;;;;;4978771;28;25076;-74
2022/07/02 11:19:24;;;;;;;1.98;0.80;;;24.60;45.10;;;;;;4980784;28;25070;-72
2022/07/02 11:21:53;;;;;;;2.67;0.90;;;24.80;49.30;;;;;;4979264;28;25063;-74
2022/07/02 11:24:21;;;;;;;3.60;0.98;;;24.70;33.60;;;;;;4978479;28;25120;-74
2022/07/02 11:26:47;;;;;;;2.67;0.80;;;23.90;39.00;;;;;;4980136;28;25063;-74
2022/07/02 11:29:13;;;;;;;4.72;1.15;;;23.80;55.60;;;;;;4975879;28;25084;-74
2022/07/02 11:31:48;;;;;;;1.98;0.73;;;23.70;56.40;;;;;;4983957;28;25065;-73
2022/07/02 11:34:15;;;;;;;2.80;1.20;;;24.10;60.50;;;;;;4986502;28;25133;-72
2022/07/02 11:36:41;;;;;;;6.57;1.08;;;24.10;49.70;;;;;;4976930;28;25066;-74
2022/07/02 11:39:11;;;;;;;3.67;1.40;;;24.10;51.60;;;;;;4980565;28;25046;-73
2022/07/02 11:41:39;;;;;;;2.35;0.90;;;23.60;48.60;;;;;;4977719;28;25065;-73
2022/07/02 11:44:22;;;;;;;8.10;1.20;;;24.00;63.50;;;;;;4982968;28;25139;-74
2022/07/02 11:46:53;;;;;;;2.22;1.00;;;24.10;61.00;;;;;;4980827;28;25087;-73
2022/07/02 11:49:22;;;;;;;5.30;1.17;;;24.40;58.30;;;;;;4980030;28;25072;-73
2022/07/02 11:51:49;;;;;;;5.13;1.05;;;24.30;48.50;;;;;;4984481;28;25061;-72
2022/07/02 11:54:16;;;;;;;3.08;1.13;;;23.90;50.30;;;;;;4983502;28;25071;-72
2022/07/02 11:56:44;;;;;;;1.75;0.93;;;24.10;62.30;;;;;;4991131;28;25093;-72
2022/07/02 11:59:12;;;;;;;4.65;1.20;;;25.10;65.50;;;;;;4977127;28;25096;-73
2022/07/02 12:01:39;;;;;;;4.35;1.00;;;25.60;47.70;;;;;;4987862;28;25077;-72
2022/07/02 12:04:08;;;;;;;1.65;0.98;;;25.70;39.20;;;;;;4989230;28;25066;-73
2022/07/02 12:06:39;;;;;;;1.40;0.90;;;25.50;42.80;;;;;;4989099;28;25096;-73
2022/07/02 12:09:07;;;;;;;6.37;0.93;;;25.40;39.20;;;;;;4985857;28;25105;-72
2022/07/02 12:11:38;;;;;;;2.42;0.68;;;25.10;29.10;;;;;;4987654;28;25079;-73
2022/07/02 12:14:05;;;;;;;5.40;1.00;;;24.80;31.90;;;;;;4990935;28;25078;-73
2022/07/02 12:16:32;;;;;;;3.95;1.40;;;25.10;46.80;;;;;;4991620;28;25049;-73
2022/07/02 12:19:11;;;;;;;3.28;0.82;;;25.40;40.70;;;;;;4987898;28;25146;-71
2022/07/02 12:21:42;;;;;;;5.78;1.00;;;24.90;33.90;;;;;;4979866;28;25086;-73
2022/07/02 12:24:21;;;;;;;2.47;0.80;;;24.30;30.20;;;;;;4984127;28;25124;-73
2022/07/02 12:27:01;;;;;;;3.58;1.00;;;24.10;40.00;;;;;;4969537;28;25062;-74
2022/07/02 12:32:15;;;;;;;2.45;0.82;;;24.90;35.80;;;;;;4978893;28;25114;-73
2022/07/02 12:34:49;;;;;;;2.70;0.93;;;25.10;36.00;;;;;;4982586;28;25084;-72
2022/07/02 12:37:27;;;;;;;2.17;1.08;;;25.20;30.00;;;;;;4975906;28;25129;-73
2022/07/02 12:40:03;;;;;;;3.65;1.27;;;25.00;43.00;;;;;;4981908;28;25132;-73
2022/07/02 12:42:33;;;;;;;4.03;0.80;;;24.80;33.00;;;;;;4980214;28;25076;-74
2022/07/02 12:45:05;;;;;;;3.80;1.30;;;25.20;44.30;;;;;;4990298;28;25057;-74
2022/07/02 12:47:36;;;;;;;6.40;0.93;;;25.50;32.80;;;;;;4975165;28;25084;-74
2022/07/02 12:50:05;;;;;;;0.90;0.80;;;25.70;32.60;;;;;;4971694;28;25055;-74
2022/07/02 12:52:42;;;;;;;2.83;1.10;;;25.70;27.10;;;;;;4972415;28;25056;-74
2022/07/02 12:55:36;;;;;;;2.55;1.05;;;26.10;35.50;;;;;;4968891;28;25076;-74